Accueil
METAR-TAF:

METAR-TAF

Aéroports :

Ankara Güvercinlik, Turquie

latitude: 39-56N, longitude: 032-45E, altitude: 819 m

Observation

Le bulletin a été fait il y a 5 heures et 14 minutes, à 00:15 UTC
Vent 10 kt de ouest
Température -1°C
Humidité 80%
Pression 1001 hPa
Visibilité 10 km ou plus
Nuages fragmentés à une hauteur de 2500 ft
Ciel couvert à une hauteur de 8000 ft

METAR: LTAB 160015Z 28010KT 9999 BKN025 OVC080 M01/M04 Q1001 RESN NOSIG RMK RWY06 24006KT 200V300

Heure: 08:29 (05:29 UTC)

Prévision

Le bulletin a été fait il y a 3 heures et 49 minutes, à 01:40 UTC
Prévision valable du 16 à 03 UTC au 16 à 12 UTC
Vent 8 kt de ouest/nord-ouest
Visibilité 10 km ou plus
Nuages épars à une hauteur de 4000 ft
Nuages fragmentés à une hauteur de 10000 ft

TAF: LTAB 160140Z 1603/1612 30008KT 9999 SCT040 BKN100

Observations et prévisions météorologiques de plus de 4000 aéroports (messages METAR et TAF).

Les stations disponibles sont représentées par des disques jaunes et rouges sur la carte.

Passer la souris dessus pour voir le nom de la station.

Cliquer dessus pour voir les observations et prévisions météorologiques.

Pour changer de carte: cliquez sur les boutons verts avec une croix noire pour zoomer, sur le bouton vert avec un tiret pour effectuer un zoom arrière, ou sur les flèches vertes pour les cartes adjacentes.


METAR-TAF: